Time;durP1;ratioP1;P1;durP2;ratioP2;P2;SDS_P1;SDS_P2;PMS_P1;PMS_P2;Temp;Humidity;BMP_temperature;BMP_pressure;BME280_temperature;BME280_humidity;BME280_pressure;Samples;Min_cycle;Max_cycle;Signal;HPM_P1;HPM_P2
2022/08/29 00:02:12;;;;;;;;;;;;;;;14.14;100.00;102204.03;2613582;36;20414;-49
2022/08/29 00:04:40;;;;;;;;;;;;;;;14.07;100.00;102210.94;2614946;36;19974;-51
2022/08/29 00:07:11;;;;;;;;;;;;;;;13.98;100.00;102205.25;2615294;31;19946;-51
2022/08/29 00:09:42;;;;;;;;;;;;;;;13.99;100.00;102200.72;2614978;31;20406;-52
2022/08/29 00:12:10;;;;;;;;;;;;;;;13.90;100.00;102205.06;2614840;31;19997;-53
2022/08/29 00:14:38;;;;;;;;;;;;;;;13.83;100.00;102203.81;2613527;36;19954;-52
2022/08/29 00:17:06;;;;;;;;;;;;;;;13.81;100.00;102208.50;2615102;31;19950;-49
2022/08/29 00:19:34;;;;;;;;;;;;;;;13.75;100.00;102201.75;2614965;36;19947;-55
2022/08/29 00:22:02;;;;;;;;;;;;;;;13.71;100.00;102205.69;2614662;36;19957;-49
2022/08/29 00:24:31;;;;;;;;;;;;;;;13.66;100.00;102207.88;2614394;31;19954;-49
2022/08/29 00:27:01;;;;;;;;;;;;;;;13.69;100.00;102201.38;2615117;36;19953;-51
2022/08/29 00:29:29;;;;;;;;;;;;;;;13.60;100.00;102198.44;2615637;36;19950;-55
2022/08/29 00:31:57;;;;;;;;;;;;;;;13.58;100.00;102199.53;2613990;36;19950;-51
2022/08/29 00:34:26;;;;;;;;;;;;;;;13.51;100.00;102209.13;2614587;36;19995;-54
2022/08/29 00:36:54;;;;;;;;;;;;;;;13.42;100.00;102205.31;2615148;36;20378;-51
2022/08/29 00:39:22;;;;;;;;;;;;;;;13.40;100.00;102215.38;2614614;36;19947;-55
2022/08/29 00:41:50;;;;;;;;;;;;;;;13.42;100.00;102216.97;2614920;36;19951;-49
2022/08/29 00:44:20;;;;;;;;;;;;;;;13.37;100.00;102212.91;2614912;36;20074;-53
2022/08/29 00:46:51;;;;;;;;;;;;;;;13.38;100.00;102211.94;2614467;36;20100;-57
2022/08/29 00:49:32;;;;;;;;;;;;;;;13.44;100.00;102214.13;2615152;36;19969;-51
2022/08/29 00:52:02;;;;;;;;;;;;;;;13.48;100.00;102218.31;2615337;36;20352;-53
2022/08/29 00:54:31;;;;;;;;;;;;;;;13.46;100.00;102220.31;2614670;36;19950;-54
2022/08/29 00:57:00;;;;;;;;;;;;;;;13.44;100.00;102224.97;2614659;36;20434;-53
2022/08/29 00:59:33;;;;;;;;;;;;;;;13.38;100.00;102211.94;2616103;36;20363;-55
2022/08/29 01:02:02;;;;;;;;;;;;;;;13.36;100.00;102205.78;2615109;36;19979;-51
2022/08/29 01:04:30;;;;;;;;;;;;;;;13.41;100.00;102208.97;2614785;31;20447;-55
2022/08/29 01:06:58;;;;;;;;;;;;;;;13.39;100.00;102211.81;2614909;36;19954;-49
2022/08/29 01:09:27;;;;;;;;;;;;;;;13.37;100.00;102215.59;2614099;36;19973;-48
2022/08/29 01:14:40;;;;;;;;;;;;;;;13.39;100.00;102219.91;2608782;31;19954;-50
2022/08/29 01:17:10;;;;;;;;;;;;;;;13.38;100.00;102214.63;2614700;36;19947;-55
2022/08/29 01:19:42;;;;;;;;;;;;;;;13.33;100.00;102217.66;2614485;36;19950;-55
2022/08/29 01:22:15;;;;;;;;;;;;;;;13.32;100.00;102221.34;2614663;36;19955;-51
2022/08/29 01:24:49;;;;;;;;;;;;;;;13.31;100.00;102219.66;2614547;31;20512;-51
2022/08/29 01:27:18;;;;;;;;;;;;;;;13.34;100.00;102219.44;2614305;36;19951;-57
2022/08/29 01:29:46;;;;;;;;;;;;;;;13.34;100.00;102224.84;2614452;36;19954;-50
2022/08/29 01:32:14;;;;;;;;;;;;;;;13.42;100.00;102226.94;2614124;36;20340;-49
2022/08/29 01:34:42;;;;;;;;;;;;;;;13.51;100.00;102223.50;2614801;31;19951;-49
2022/08/29 01:37:12;;;;;;;;;;;;;;;13.66;100.00;102222.28;2614469;36;20432;-52
2022/08/29 01:39:42;;;;;;;;;;;;;;;13.61;100.00;102220.94;2614123;36;19987;-50
2022/08/29 01:42:14;;;;;;;;;;;;;;;13.65;100.00;102223.25;2614279;36;19981;-52
2022/08/29 01:44:43;;;;;;;;;;;;;;;13.73;100.00;102216.38;2614628;36;19970;-51
2022/08/29 01:47:11;;;;;;;;;;;;;;;13.78;100.00;102216.84;2614650;36;20455;-56
2022/08/29 01:49:39;;;;;;;;;;;;;;;13.88;100.00;102223.25;2614484;36;19946;-52
2022/08/29 01:52:08;;;;;;;;;;;;;;;13.96;100.00;102218.06;2613928;36;19977;-51
2022/08/29 01:54:36;;;;;;;;;;;;;;;13.96;100.00;102225.34;2614097;36;20447;-51
2022/08/29 01:57:04;;;;;;;;;;;;;;;14.03;100.00;102226.56;2614870;36;20438;-52
2022/08/29 01:59:35;;;;;;;;;;;;;;;14.04;100.00;102228.28;2613013;36;19958;-54
2022/08/29 02:02:05;;;;;;;;;;;;;;;14.07;100.00;102227.16;2614061;36;19990;-54
2022/08/29 02:04:33;;;;;;;;;;;;;;;14.04;100.00;102217.44;2614472;31;19950;-50
2022/08/29 02:07:02;;;;;;;;;;;;;;;14.04;100.00;102222.00;2614456;36;19974;-50
2022/08/29 02:09:30;;;;;;;;;;;;;;;14.06;100.00;102214.59;2613732;36;19954;-50
2022/08/29 02:12:01;;;;;;;;;;;;;;;14.08;100.00;102221.63;2614520;36;19951;-50
2022/08/29 02:14:29;;;;;;;;;;;;;;;14.24;100.00;102206.84;2614357;36;19954;-50
2022/08/29 02:17:00;;;;;;;;;;;;;;;14.19;100.00;102208.06;2614321;36;20026;-52
2022/08/29 02:19:28;;;;;;;;;;;;;;;14.26;100.00;102211.13;2614207;36;19960;-53
2022/08/29 02:21:56;;;;;;;;;;;;;;;14.13;100.00;102210.41;2614034;36;19970;-50
2022/08/29 02:24:24;;;;;;;;;;;;;;;14.21;100.00;102213.38;2614754;31;20042;-56
2022/08/29 02:26:53;;;;;;;;;;;;;;;14.27;100.00;102212.00;2614638;36;20326;-55
2022/08/29 02:29:21;;;;;;;;;;;;;;;14.26;100.00;102216.53;2614476;31;20004;-53
2022/08/29 02:31:49;;;;;;;;;;;;;;;14.22;100.00;102219.63;2614294;36;20427;-55
2022/08/29 02:34:20;;;;;;;;;;;;;;;14.24;100.00;102217.66;2613578;36;19953;-52
2022/08/29 02:36:48;;;;;;;;;;;;;;;14.19;100.00;102212.59;2613905;31;19955;-48
2022/08/29 02:39:16;;;;;;;;;;;;;;;14.19;100.00;102215.31;2613352;31;20424;-50
2022/08/29 02:41:45;;;;;;;;;;;;;;;14.26;100.00;102216.53;2615006;36;20453;-54
2022/08/29 02:44:13;;;;;;;;;;;;;;;14.32;100.00;102217.88;2613925;36;20021;-49
2022/08/29 02:46:41;;;;;;;;;;;;;;;14.31;100.00;102219.75;2614867;36;19958;-53
2022/08/29 02:49:09;;;;;;;;;;;;;;;14.29;100.00;102215.44;2614423;36;19950;-51
2022/08/29 02:51:40;;;;;;;;;;;;;;;14.26;100.00;102227.38;2614725;36;19951;-49
2022/08/29 02:54:08;;;;;;;;;;;;;;;14.30;100.00;102222.56;2614765;36;20351;-49
2022/08/29 02:56:36;;;;;;;;;;;;;;;14.31;100.00;102227.88;2614433;36;19950;-51
2022/08/29 02:59:04;;;;;;;;;;;;;;;14.28;100.00;102220.00;2614107;36;19943;-57
2022/08/29 03:01:32;;;;;;;;;;;;;;;14.28;100.00;102219.13;2614362;36;19950;-56
2022/08/29 03:04:01;;;;;;;;;;;;;;;14.23;100.00;102224.06;2614849;31;20075;-60
2022/08/29 03:06:29;;;;;;;;;;;;;;;14.18;100.00;102217.19;2614137;31;19947;-49
2022/08/29 03:08:59;;;;;;;;;;;;;;;14.20;100.00;102225.16;2614125;36;19951;-49
2022/08/29 03:11:28;;;;;;;;;;;;;;;14.14;100.00;102222.97;2614127;36;19977;-51
2022/08/29 03:13:56;;;;;;;;;;;;;;;14.15;100.00;102224.69;2613800;36;19953;-49
2022/08/29 03:16:24;;;;;;;;;;;;;;;14.18;100.00;102224.44;2607553;36;19958;-54
2022/08/29 03:18:52;;;;;;;;;;;;;;;14.35;100.00;102228.44;2615288;36;19989;-53
2022/08/29 03:21:21;;;;;;;;;;;;;;;14.41;100.00;102224.38;2615224;36;19954;-58
2022/08/29 03:23:50;;;;;;;;;;;;;;;14.24;100.00;102217.66;2615380;31;19939;-50
2022/08/29 03:26:21;;;;;;;;;;;;;;;14.23;100.00;102222.22;2614394;36;19973;-54
2022/08/29 03:28:49;;;;;;;;;;;;;;;14.35;100.00;102215.78;2613951;31;20034;-50
2022/08/29 03:31:18;;;;;;;;;;;;;;;14.44;100.00;102218.69;2615079;36;19939;-55
2022/08/29 03:33:46;;;;;;;;;;;;;;;14.45;100.00;102215.00;2614901;36;20474;-50
2022/08/29 03:36:14;;;;;;;;;;;;;;;14.52;100.00;102214.38;2613210;36;21759;-50
2022/08/29 03:38:42;;;;;;;;;;;;;;;14.50;100.00;102212.75;2615002;36;19954;-50
2022/08/29 03:41:10;;;;;;;;;;;;;;;14.37;100.00;102208.38;2614691;36;19946;-53
2022/08/29 03:43:40;;;;;;;;;;;;;;;14.45;100.00;102209.59;2615000;36;19977;-51
2022/08/29 03:46:08;;;;;;;;;;;;;;;14.50;100.00;102201.94;2615164;36;20507;-54
2022/08/29 03:48:36;;;;;;;;;;;;;;;14.48;100.00;102201.22;2615682;36;19954;-51
2022/08/29 03:51:05;;;;;;;;;;;;;;;14.40;100.00;102195.56;2615276;36;21232;-52
2022/08/29 03:53:33;;;;;;;;;;;;;;;14.39;100.00;102193.88;2615146;36;19954;-55
2022/08/29 03:56:01;;;;;;;;;;;;;;;14.48;100.00;102198.50;2614897;36;19958;-51
2022/08/29 03:58:30;;;;;;;;;;;;;;;14.49;100.00;102195.66;2614733;36;19951;-52
2022/08/29 04:01:01;;;;;;;;;;;;;;;14.57;100.00;102192.28;2615311;36;19969;-51
2022/08/29 04:03:29;;;;;;;;;;;;;;;14.59;100.00;102190.34;2614758;36;19957;-50
2022/08/29 04:05:57;;;;;;;;;;;;;;;14.60;100.00;102185.78;2615349;36;19951;-46
2022/08/29 04:08:25;;;;;;;;;;;;;;;14.56;100.00;102187.88;2615096;36;20345;-49
2022/08/29 04:10:53;;;;;;;;;;;;;;;14.46;100.00;102185.09;2615484;36;19947;-50
2022/08/29 04:13:21;;;;;;;;;;;;;;;14.44;100.00;102192.50;2615513;36;19962;-51
2022/08/29 04:15:49;;;;;;;;;;;;;;;14.55;100.00;102191.59;2614979;36;19951;-49
2022/08/29 04:18:19;;;;;;;;;;;;;;;14.55;100.00;102199.72;2614725;31;19950;-53
2022/08/29 04:20:47;;;;;;;;;;;;;;;14.60;100.00;102199.31;2616380;31;19947;-53
2022/08/29 04:23:16;;;;;;;;;;;;;;;14.53;100.00;102197.13;2615761;36;19950;-52
2022/08/29 04:25:45;;;;;;;;;;;;;;;14.57;100.00;102196.88;2615217;36;19946;-50
2022/08/29 04:28:14;;;;;;;;;;;;;;;14.63;100.00;102191.81;2613701;31;19950;-51
2022/08/29 04:30:47;;;;;;;;;;;;;;;14.69;100.00;102202.16;2615195;36;19946;-52
2022/08/29 04:33:15;;;;;;;;;;;;;;;14.70;100.00;102208.41;2615067;36;19958;-51
2022/08/29 04:35:46;;;;;;;;;;;;;;;14.69;100.00;102202.16;2615370;36;19950;-50
2022/08/29 04:38:14;;;;;;;;;;;;;;;14.69;100.00;102207.56;2614819;36;19950;-56
2022/08/29 04:40:43;;;;;;;;;;;;;;;14.81;100.00;102204.78;2615489;36;19947;-51
2022/08/29 04:43:14;;;;;;;;;;;;;;;14.81;100.00;102210.19;2615687;31;19946;-48
2022/08/29 04:45:46;;;;;;;;;;;;;;;14.86;100.00;102208.81;2615567;47;19951;-53
2022/08/29 04:48:16;;;;;;;;;;;;;;;14.88;100.00;102208.69;2615270;36;19955;-57
2022/08/29 04:50:46;;;;;;;;;;;;;;;14.88;100.00;102216.81;2615892;31;20503;-54
2022/08/29 04:53:14;;;;;;;;;;;;;;;14.87;100.00;102215.13;2615216;36;19966;-55
2022/08/29 04:55:43;;;;;;;;;;;;;;;14.82;100.00;102222.78;2615205;36;19947;-50
2022/08/29 04:58:11;;;;;;;;;;;;;;;14.81;100.00;102226.47;2614922;31;19995;-55
2022/08/29 05:00:39;;;;;;;;;;;;;;;14.87;100.00;102221.41;2615510;36;19958;-55
2022/08/29 05:03:07;;;;;;;;;;;;;;;14.88;100.00;102216.81;2614611;36;19947;-56
2022/08/29 05:05:35;;;;;;;;;;;;;;;14.92;100.00;102214.72;2615104;36;20001;-55
2022/08/29 05:08:06;;;;;;;;;;;;;;;14.98;100.00;102212.34;2614710;36;20514;-53
2022/08/29 05:10:34;;;;;;;;;;;;;;;15.09;100.00;102210.56;2614786;36;19939;-51
2022/08/29 05:13:02;;;;;;;;;;;;;;;15.14;100.00;102200.19;2614110;36;20418;-57
2022/08/29 05:15:30;;;;;;;;;;;;;;;15.19;100.00;102209.63;2615502;36;20074;-50
2022/08/29 05:17:58;;;;;;;;;;;;;;;15.15;100.00;102215.44;2614247;31;19965;-53
2022/08/29 05:20:27;;;;;;;;;;;;;;;15.14;100.00;102209.16;2607866;36;19965;-49
2022/08/29 05:22:55;;;;;;;;;;;;;;;15.21;100.00;102215.78;2614953;36;19985;-51
2022/08/29 05:25:25;;;;;;;;;;;;;;;15.24;100.00;102215.50;2613905;36;19947;-52
2022/08/29 05:27:53;;;;;;;;;;;;;;;15.16;100.00;102233.44;2614631;36;19971;-49
2022/08/29 05:30:22;;;;;;;;;;;;;;;15.17;100.00;102235.16;2612851;31;19951;-57
2022/08/29 05:32:50;;;;;;;;;;;;;;;15.05;100.00;102237.94;2614334;36;19950;-51
2022/08/29 05:35:18;;;;;;;;;;;;;;;15.11;100.00;102235.69;2614598;36;19953;-52
2022/08/29 05:37:47;;;;;;;;;;;;;;;15.21;100.00;102242.06;2615650;31;20415;-58
2022/08/29 05:40:15;;;;;;;;;;;;;;;15.27;100.00;102238.78;2613834;36;19953;-52
2022/08/29 05:42:46;;;;;;;;;;;;;;;15.36;100.00;102240.69;2614597;31;19977;-52
2022/08/29 05:45:14;;;;;;;;;;;;;;;15.39;100.00;102232.28;2614689;36;19982;-51
2022/08/29 05:47:42;;;;;;;;;;;;;;;15.50;100.00;102233.22;2614896;36;19945;-48
2022/08/29 05:50:12;;;;;;;;;;;;;;;15.56;100.00;102232.66;2614819;36;20321;-54
2022/08/29 05:52:42;;;;;;;;;;;;;;;15.69;100.00;102238.72;2613097;36;20041;-50
2022/08/29 05:55:10;;;;;;;;;;;;;;;15.77;100.00;102238.91;2613363;36;20000;-57
2022/08/29 05:57:38;;;;;;;;;;;;;;;15.88;100.00;102234.41;2612097;36;19954;-52
2022/08/29 06:00:11;;;;;;;;;;;;;;;16.00;100.00;102235.16;2613054;31;20737;-52
2022/08/29 06:02:39;;;;;;;;;;;;;;;16.27;100.00;102234.53;2613038;36;19966;-51
2022/08/29 06:05:07;;;;;;;;;;;;;;;16.31;100.00;102227.78;2613134;36;19973;-56
2022/08/29 06:07:36;;;;;;;;;;;;;;;16.51;100.00;102233.28;2614607;31;19954;-54
2022/08/29 06:10:05;;;;;;;;;;;;;;;16.49;100.00;102224.38;2614045;36;19946;-52
2022/08/29 06:12:33;;;;;;;;;;;;;;;16.69;100.00;102228.84;2614820;31;19951;-53
2022/08/29 06:15:01;;;;;;;;;;;;;;;16.97;100.00;102229.88;2615214;36;20459;-56
2022/08/29 06:17:32;;;;;;;;;;;;;;;17.10;100.00;102234.16;2614491;36;19973;-56
2022/08/29 06:20:00;;;;;;;;;;;;;;;17.14;100.00;102228.25;2614588;36;20416;-54
2022/08/29 06:22:28;;;;;;;;;;;;;;;17.40;100.00;102224.94;2613895;31;19981;-51
2022/08/29 06:24:56;;;;;;;;;;;;;;;17.59;100.00;102223.13;2613763;36;19948;-53
2022/08/29 06:27:24;;;;;;;;;;;;;;;17.65;100.00;102228.84;2610195;36;19989;-52
2022/08/29 06:29:52;;;;;;;;;;;;;;;17.61;100.00;102226.56;2604546;36;20447;-51
2022/08/29 06:32:20;;;;;;;;;;;;;;;17.64;100.00;102234.44;2614364;36;20486;-49
2022/08/29 06:34:51;;;;;;;;;;;;;;;17.67;100.00;102234.16;2613094;36;19955;-55
2022/08/29 06:37:19;;;;;;;;;;;;;;;17.50;100.00;102233.03;2614047;36;20448;-53
2022/08/29 06:39:47;;;;;;;;;;;;;;;17.65;100.00;102234.28;2613968;36;19973;-56
2022/08/29 06:42:17;;;;;;;;;;;;;;;17.87;100.00;102232.19;2613513;31;19946;-52
2022/08/29 06:44:45;;;;;;;;;;;;;;;17.89;100.00;102223.84;2614570;36;19946;-53
2022/08/29 06:47:13;;;;;;;;;;;;;;;17.84;100.00;102233.34;2614438;36;19961;-50
2022/08/29 06:49:41;;;;;;;;;;;;;;;17.91;100.00;102232.78;2613677;31;19950;-51
2022/08/29 06:52:12;;;;;;;;;;;;;;;17.95;100.00;102232.31;2610514;31;19958;-55
2022/08/29 06:54:40;;;;;;;;;;;;;;;18.14;100.00;102228.63;2613073;36;19954;-48
2022/08/29 06:57:08;;;;;;;;;;;;;;;18.21;100.00;102235.19;2614571;31;19973;-50
2022/08/29 06:59:36;;;;;;;;;;;;;;;17.96;100.00;102230.44;2613510;36;19997;-51
2022/08/29 07:02:05;;;;;;;;;;;;;;;18.23;100.00;102237.75;2612524;36;19947;-51
2022/08/29 07:04:33;;;;;;;;;;;;;;;18.44;100.00;102245.66;2614439;36;19961;-54
2022/08/29 07:07:01;;;;;;;;;;;;;;;18.26;100.00;102244.78;2615013;36;19954;-55
2022/08/29 07:09:32;;;;;;;;;;;;;;;18.49;100.00;102246.06;2614479;36;19946;-54
2022/08/29 07:12:00;;;;;;;;;;;;;;;18.81;100.00;102252.81;2615410;36;20455;-51
2022/08/29 07:14:28;;;;;;;;;;;;;;;18.84;100.00;102254.38;2615636;36;19990;-49
2022/08/29 07:16:57;;;;;;;;;;;;;;;19.05;100.00;102254.97;2614850;36;19957;-50
2022/08/29 07:19:25;;;;;;;;;;;;;;;19.19;100.00;102253.50;2614138;36;19970;-55
2022/08/29 07:21:53;;;;;;;;;;;;;;;19.44;100.00;102254.53;2614037;36;19975;-55
2022/08/29 07:24:21;;;;;;;;;;;;;;;19.40;100.00;102257.75;2613784;36;20501;-51
2022/08/29 07:26:51;;;;;;;;;;;;;;;19.54;100.00;102256.31;2614157;36;19950;-50
2022/08/29 07:29:21;;;;;;;;;;;;;;;19.56;100.00;102254.28;2608702;36;19954;-51
2022/08/29 07:31:49;;;;;;;;;;;;;;;19.69;100.00;102262.03;2613823;36;19958;-49
2022/08/29 07:34:18;;;;;;;;;;;;;;;19.81;100.00;102244.38;2607589;36;20436;-53
2022/08/29 07:36:46;;;;;;;;;;;;;;;19.73;100.00;102255.25;2614769;36;20447;-52
2022/08/29 07:39:15;;;;;;;;;;;;;;;19.51;100.00;102243.84;2613789;36;19946;-53
2022/08/29 07:41:44;;;;;;;;;;;;;;;19.75;100.00;102245.00;2611543;36;21901;-50
2022/08/29 07:44:16;;;;;;;;;;;;;;;19.78;100.00;102244.69;2614038;36;19973;-51
2022/08/29 07:46:44;;;;;;;;;;;;;;;19.54;100.00;102248.13;2614773;36;20359;-52
2022/08/29 07:49:13;;;;;;;;;;;;;;;19.53;100.00;102241.78;2613331;36;20359;-51
2022/08/29 07:51:41;;;;;;;;;;;;;;;19.75;100.00;102239.53;2614035;31;19939;-53
2022/08/29 07:54:09;;;;;;;;;;;;;;;19.99;100.00;102238.81;2614091;36;20001;-53
2022/08/29 07:56:40;;;;;;;;;;;;;;;19.90;100.00;102248.00;2612694;36;19961;-52
2022/08/29 07:59:08;;;;;;;;;;;;;;;20.08;100.00;102246.03;2613717;36;19973;-53
2022/08/29 08:01:39;;;;;;;;;;;;;;;19.84;100.00;102249.50;2614368;36;19977;-49
2022/08/29 08:04:07;;;;;;;;;;;;;;;20.10;100.00;102254.06;2613960;31;19986;-55
2022/08/29 08:06:36;;;;;;;;;;;;;;;20.17;100.00;102251.50;2614809;36;19958;-56
2022/08/29 08:09:04;;;;;;;;;;;;;;;20.24;100.00;102256.16;2615165;31;20462;-53
2022/08/29 08:11:33;;;;;;;;;;;;;;;20.65;100.00;102249.91;2614198;36;19951;-51
2022/08/29 08:14:01;;;;;;;;;;;;;;;20.47;100.00;102261.84;2613228;36;19958;-50
2022/08/29 08:16:33;;;;;;;;;;;;;;;20.51;100.00;102259.66;2615152;36;20468;-50
2022/08/29 08:19:04;;;;;;;;;;;;;;;20.47;100.00;102252.81;2615281;36;20343;-54
2022/08/29 08:21:32;;;;;;;;;;;;;;;20.67;100.00;102255.25;2612575;36;19992;-52
2022/08/29 08:24:00;;;;;;;;;;;;;;;21.00;100.00;102256.97;2607877;36;19951;-50
2022/08/29 08:26:28;;;;;;;;;;;;;;;21.06;100.00;102255.44;2613628;36;20420;-52
2022/08/29 08:28:56;;;;;;;;;;;;;;;21.26;100.00;102261.44;2612602;36;19946;-51
2022/08/29 08:31:24;;;;;;;;;;;;;;;21.46;100.00;102261.03;2614896;36;19962;-53
2022/08/29 08:33:52;;;;;;;;;;;;;;;21.34;100.00;102261.41;2607291;36;20424;-51
2022/08/29 08:36:24;;;;;;;;;;;;;;;21.62;100.00;102252.81;2606810;31;19958;-53
2022/08/29 08:38:53;;;;;;;;;;;;;;;21.40;100.00;102251.63;2612419;36;19973;-53
2022/08/29 08:41:41;;;;;;;;;;;;;;;21.54;100.00;102252.84;2613224;36;19965;-53
2022/08/29 08:44:14;;;;;;;;;;;;;;;21.88;100.00;102248.97;2614925;31;19946;-50
2022/08/29 08:46:44;;;;;;;;;;;;;;;21.95;100.00;102249.09;2613125;36;19957;-49
2022/08/29 08:49:15;;;;;;;;;;;;;;;21.85;100.00;102249.34;2612265;36;19953;-55
2022/08/29 08:51:49;;;;;;;;;;;;;;;21.65;100.00;102249.72;2612718;36;19955;-51
2022/08/29 08:54:20;;;;;;;;;;;;;;;21.43;100.00;102251.28;2611492;36;19954;-52
2022/08/29 08:56:50;;;;;;;;;;;;;;;21.89;100.00;102245.19;2609581;31;20316;-53
2022/08/29 08:59:22;;;;;;;;;;;;;;;22.13;100.00;102248.84;2610941;31;19973;-52
2022/08/29 09:01:59;;;;;;;;;;;;;;;21.39;100.00;102249.06;2613219;36;20431;-49
2022/08/29 09:04:38;;;;;;;;;;;;;;;21.26;100.00;102246.88;2613144;36;19953;-50
2022/08/29 09:07:15;;;;;;;;;;;;;;;21.74;100.00;102247.81;2613134;36;19981;-50
2022/08/29 09:09:49;;;;;;;;;;;;;;;21.54;100.00;102247.38;2613468;36;20034;-57
2022/08/29 09:12:28;;;;;;;;;;;;;;;21.45;100.00;102253.84;2613810;36;19950;-55
2022/08/29 09:15:02;;;;;;;;;;;;;;;21.68;100.00;102254.00;2614181;36;19954;-51
2022/08/29 09:17:35;;;;;;;;;;;;;;;21.80;100.00;102249.00;2613438;36;19951;-50
2022/08/29 09:20:04;;;;;;;;;;;;;;;21.63;100.00;102251.81;2610616;36;19946;-51
2022/08/29 09:22:35;;;;;;;;;;;;;;;21.14;100.00;102251.84;2612493;36;19947;-54
2022/08/29 09:25:05;;;;;;;;;;;;;;;20.99;100.00;102258.03;2613858;36;19950;-52
2022/08/29 09:27:35;;;;;;;;;;;;;;;20.95;100.00;102259.38;2612493;36;19977;-53
2022/08/29 09:30:07;;;;;;;;;;;;;;;21.14;100.00;102257.31;2612752;36;19955;-50
2022/08/29 09:32:36;;;;;;;;;;;;;;;21.02;100.00;102264.19;2613292;31;19954;-53
2022/08/29 09:35:18;;;;;;;;;;;;;;;20.96;100.00;102261.06;2613729;36;20014;-48
2022/08/29 09:37:56;;;;;;;;;;;;;;;21.21;100.00;102269.28;2610740;36;20332;-55
2022/08/29 09:40:24;;;;;;;;;;;;;;;21.58;100.00;102265.16;2614388;36;19947;-52
2022/08/29 09:43:01;;;;;;;;;;;;;;;21.40;100.00;102264.50;2606298;36;20440;-50
2022/08/29 09:45:29;;;;;;;;;;;;;;;21.64;100.00;102269.09;2614342;36;20440;-51
2022/08/29 09:48:10;;;;;;;;;;;;;;;21.21;100.00;102263.81;2614403;36;20375;-57
2022/08/29 09:50:38;;;;;;;;;;;;;;;21.13;100.00;102261.94;2613264;31;19946;-52
2022/08/29 09:53:09;;;;;;;;;;;;;;;21.64;100.00;102252.63;2612853;36;19951;-51
2022/08/29 09:55:39;;;;;;;;;;;;;;;21.45;100.00;102259.34;2614834;31;19957;-50
2022/08/29 09:58:09;;;;;;;;;;;;;;;21.74;100.00;102256.03;2612985;36;20049;-52
2022/08/29 10:00:38;;;;;;;;;;;;;;;21.93;100.00;102265.72;2613820;36;19946;-51
2022/08/29 10:03:07;;;;;;;;;;;;;;;21.50;100.00;102265.16;2614448;36;20431;-51
2022/08/29 10:05:40;;;;;;;;;;;;;;;21.78;100.00;102256.56;2615206;36;20280;-52
2022/08/29 10:08:26;;;;;;;;;;;;;;;22.21;100.00;102257.03;2615154;36;20415;-53
2022/08/29 10:10:55;;;;;;;;;;;;;;;22.35;100.00;102261.81;2611959;36;20558;-52
2022/08/29 10:13:24;;;;;;;;;;;;;;;22.20;100.00;102264.44;2614265;36;19958;-51
2022/08/29 10:15:56;;;;;;;;;;;;;;;22.36;100.00;102262.66;2612426;36;19950;-50
2022/08/29 10:18:28;;;;;;;;;;;;;;;22.28;100.00;102262.69;2613268;31;19947;-53
2022/08/29 10:21:06;;;;;;;;;;;;;;;22.42;100.00;102258.34;2612668;36;19951;-50
2022/08/29 10:23:39;;;;;;;;;;;;;;;22.16;100.00;102262.22;2610627;36;19950;-54
2022/08/29 10:26:11;;;;;;;;;;;;;;;21.68;100.00;102256.75;2611067;36;20081;-49
2022/08/29 10:28:41;;;;;;;;;;;;;;;21.96;100.00;102257.16;2613009;36;20476;-51
2022/08/29 10:31:12;;;;;;;;;;;;;;;21.69;100.00;102253.81;2613340;31;19967;-50
2022/08/29 10:33:51;;;;;;;;;;;;;;;21.59;100.00;102255.06;2613419;36;20462;-52
2022/08/29 10:36:22;;;;;;;;;;;;;;;21.70;100.00;102252.81;2612679;31;20535;-50
2022/08/29 10:38:56;;;;;;;;;;;;;;;21.44;100.00;102257.63;2613996;36;19994;-55
2022/08/29 10:41:30;;;;;;;;;;;;;;;21.93;100.00;102252.03;2615112;36;19974;-49
2022/08/29 10:44:04;;;;;;;;;;;;;;;21.99;100.00;102253.22;2609013;36;19979;-50
2022/08/29 10:46:43;;;;;;;;;;;;;;;22.14;100.00;102259.66;2607715;36;19946;-51
2022/08/29 10:49:18;;;;;;;;;;;;;;;22.52;100.00;102245.25;2613101;36;19953;-51
2022/08/29 10:51:51;;;;;;;;;;;;;;;22.77;100.00;102245.06;2613893;31;19977;-55
2022/08/29 10:54:26;;;;;;;;;;;;;;;22.52;100.00;102246.09;2607200;36;20559;-53
2022/08/29 10:56:56;;;;;;;;;;;;;;;22.23;100.00;102252.22;2612059;36;20038;-51
2022/08/29 10:59:29;;;;;;;;;;;;;;;22.75;100.00;102251.59;2605445;31;20332;-50
2022/08/29 11:02:01;;;;;;;;;;;;;;;23.04;100.00;102250.00;2611784;36;19950;-52
2022/08/29 11:04:31;;;;;;;;;;;;;;;23.02;100.00;102241.06;2611759;36;19977;-57
2022/08/29 11:07:05;;;;;;;;;;;;;;;23.31;100.00;102238.63;2612883;36;19950;-53
2022/08/29 11:09:40;;;;;;;;;;;;;;;23.29;100.00;102241.53;2612055;36;19958;-51
2022/08/29 11:12:13;;;;;;;;;;;;;;;23.21;100.00;102234.22;2611501;36;19951;-49
2022/08/29 11:14:42;;;;;;;;;;;;;;;23.14;100.00;102232.44;2612585;36;19959;-49
2022/08/29 11:17:13;;;;;;;;;;;;;;;23.34;100.00;102233.59;2612802;31;20451;-50
2022/08/29 11:19:48;;;;;;;;;;;;;;;23.22;100.00;102224.13;2613461;36;19951;-49
2022/08/29 11:22:20;;;;;;;;;;;;;;;23.71;100.00;102229.06;2613384;36;20031;-51
2022/08/29 11:24:55;;;;;;;;;;;;;;;23.65;100.00;102216.06;2613783;36;19951;-54
2022/08/29 11:27:26;;;;;;;;;;;;;;;23.69;100.00;102220.16;2614629;36;20917;-54
2022/08/29 11:29:59;;;;;;;;;;;;;;;23.75;100.00;102226.78;2613286;36;19955;-50
2022/08/29 11:32:30;;;;;;;;;;;;;;;23.71;100.00;102218.06;2613548;36;19974;-49
2022/08/29 11:35:04;;;;;;;;;;;;;;;24.07;100.00;102213.66;2611844;36;19968;-54
2022/08/29 11:37:48;;;;;;;;;;;;;;;24.21;100.00;102207.28;2612065;36;19981;-51
2022/08/29 11:40:22;;;;;;;;;;;;;;;24.41;93.06;102213.03;2613550;36;19954;-51
2022/08/29 11:42:51;;;;;;;;;;;;;;;23.84;100.00;102208.31;2611007;36;19985;-52
2022/08/29 11:45:25;;;;;;;;;;;;;;;24.69;90.97;102215.03;2611688;36;19974;-49
2022/08/29 11:48:00;;;;;;;;;;;;;;;25.10;99.92;102206.06;2606370;36;20305;-51
2022/08/29 11:50:34;;;;;;;;;;;;;;;25.25;88.18;102196.81;2606696;36;19977;-48
2022/08/29 11:53:08;;;;;;;;;;;;;;;24.94;94.92;102200.81;2611942;36;19951;-53
2022/08/29 11:55:39;;;;;;;;;;;;;;;24.64;90.30;102207.34;2612554;36;19953;-51
2022/08/29 11:58:23;;;;;;;;;;;;;;;24.81;88.24;102207.09;2612744;36;20363;-50
2022/08/29 12:00:52;;;;;;;;;;;;;;;24.77;81.55;102209.38;2611768;36;20499;-49
2022/08/29 12:03:35;;;;;;;;;;;;;;;24.18;90.41;102201.34;2613492;36;19978;-50
2022/08/29 12:06:05;;;;;;;;;;;;;;;24.30;92.36;102202.53;2614973;36;20427;-50
2022/08/29 12:08:39;;;;;;;;;;;;;;;24.48;97.25;102205.69;2613036;36;20006;-52
2022/08/29 12:11:09;;;;;;;;;;;;;;;24.92;95.21;102197.41;2611712;31;19951;-55
2022/08/29 12:14:01;;;;;;;;;;;;;;;24.63;90.97;102199.28;2614912;36;19943;-51
2022/08/29 12:16:45;;;;;;;;;;;;;;;24.90;90.51;102199.53;2612674;36;19962;-54
2022/08/29 12:19:13;;;;;;;;;;;;;;;25.18;95.98;102194.03;2612561;36;19958;-52
2022/08/29 12:21:46;;;;;;;;;;;;;;;24.62;86.07;102203.94;2613716;36;19990;-52
2022/08/29 12:24:32;;;;;;;;;;;;;;;24.17;91.02;102189.47;2612508;36;19954;-52
2022/08/29 12:27:03;;;;;;;;;;;;;;;24.36;89.68;102187.97;2613689;36;19950;-50
2022/08/29 12:29:33;;;;;;;;;;;;;;;24.15;94.25;102191.56;2612304;36;19946;-54
2022/08/29 12:32:22;;;;;;;;;;;;;;;24.14;92.81;102190.72;2612656;36;19947;-50
2022/08/29 12:34:59;;;;;;;;;;;;;;;24.72;87.88;102186.22;2615003;36;19985;-55
2022/08/29 12:37:37;;;;;;;;;;;;;;;24.17;100.00;102185.88;2613481;36;20376;-53
2022/08/29 12:40:23;;;;;;;;;;;;;;;23.83;100.00;102181.84;2612942;36;19951;-53
2022/08/29 12:43:03;;;;;;;;;;;;;;;24.28;100.00;102179.88;2611114;31;20447;-53
2022/08/29 12:45:33;;;;;;;;;;;;;;;23.95;100.00;102180.31;2609729;36;19989;-53
2022/08/29 12:48:03;;;;;;;;;;;;;;;24.30;96.86;102173.09;2611507;36;20037;-49